createdAt,value
2023-05-01T00:19:07.376Z,10.1
2023-05-01T00:24:16.869Z,10.1
2023-05-01T00:26:19.994Z,10.1
2023-05-01T00:28:23.142Z,10
2023-05-01T00:30:26.315Z,10
2023-05-01T00:36:38.933Z,9.7
2023-05-01T00:38:42.097Z,9.8
2023-05-01T00:40:45.217Z,9.6
2023-05-01T00:42:48.380Z,9.6
2023-05-01T00:53:07.274Z,9.5
2023-05-01T00:55:10.425Z,9.6
2023-05-01T00:57:13.562Z,9.5
2023-05-01T00:59:16.731Z,9.5
2023-05-01T01:03:26.208Z,9.5
2023-05-01T01:05:29.350Z,9.3
2023-05-01T01:07:32.486Z,9.3
2023-05-01T01:17:51.433Z,9
2023-05-01T01:19:54.654Z,9.1
2023-05-01T01:22:18.137Z,9
2023-05-01T01:26:24.437Z,9
2023-05-01T01:28:30.728Z,9
2023-05-01T01:30:33.862Z,9
2023-05-01T01:34:40.158Z,9.1
2023-05-01T01:40:49.583Z,9
2023-05-01T01:42:55.913Z,9
2023-05-01T01:44:59.082Z,8.9
2023-05-01T01:47:02.144Z,8.9
2023-05-01T01:49:05.263Z,8.8
2023-05-01T01:51:08.383Z,8.8
2023-05-01T01:53:11.561Z,8.8
2023-05-01T01:57:21.022Z,8.6
2023-05-01T01:59:24.170Z,8.6
2023-05-01T02:01:27.334Z,8.6
2023-05-01T02:05:33.600Z,8.6
2023-05-01T02:07:36.949Z,8.5
2023-05-01T02:16:55.651Z,8.5
2023-05-01T02:18:58.803Z,8.4
2023-05-01T02:21:01.918Z,8.4
2023-05-01T02:25:11.395Z,8.3
2023-05-01T02:27:14.518Z,8.2
2023-05-01T02:31:20.796Z,8.3
2023-05-01T02:33:23.934Z,8.3
2023-05-01T02:35:27.063Z,8.4
2023-05-01T02:37:30.185Z,8.2
2023-05-01T02:39:36.512Z,8.3
2023-05-01T02:45:45.993Z,8.2
2023-05-01T02:47:49.053Z,8.2
2023-05-01T02:54:01.643Z,8.1
2023-05-01T02:56:04.764Z,8
2023-05-01T03:02:14.164Z,8
2023-05-01T03:06:20.532Z,8.1
2023-05-01T03:08:26.766Z,7.9
2023-05-01T03:10:29.904Z,7.9
2023-05-01T03:12:33.025Z,7.9
2023-05-01T03:13:36.201Z,7.9
2023-05-01T03:17:42.500Z,8
2023-05-01T03:19:45.550Z,8.1
2023-05-01T03:25:58.167Z,8
2023-05-01T03:28:01.291Z,8
2023-05-01T03:30:04.403Z,8
2023-05-01T03:50:42.080Z,8.1
2023-05-01T03:52:45.227Z,8.1
2023-05-01T03:54:48.340Z,8.1
2023-05-01T03:56:51.455Z,8.3
2023-05-01T03:58:54.569Z,8.3
2023-05-01T04:03:00.985Z,8.2
2023-05-01T04:05:07.198Z,8.2
2023-05-01T04:10:16.740Z,8.1
2023-05-01T04:12:19.744Z,8.3
2023-05-01T04:14:22.871Z,8.2
2023-05-01T04:16:26.035Z,8.2
2023-05-01T04:18:32.340Z,8.3
2023-05-01T04:20:35.444Z,8.2
2023-05-01T04:22:38.582Z,8.4
2023-05-01T04:43:13.068Z,8.4
2023-05-01T04:45:16.211Z,8.6
2023-05-01T04:47:22.540Z,8.6
2023-05-01T04:49:25.654Z,8.6
2023-05-01T04:51:28.819Z,8.7
2023-05-01T04:53:31.927Z,8.7
2023-05-01T04:55:35.044Z,8.6
2023-05-01T04:57:38.181Z,8.7
2023-05-01T05:01:47.674Z,8.8
2023-05-01T05:03:51.029Z,8.8
2023-05-01T05:05:53.891Z,8.9
2023-05-01T05:08:23.692Z,8.8
2023-05-01T05:10:26.833Z,8.9
2023-05-01T05:12:29.974Z,8.9
2023-05-01T05:14:36.346Z,8.9
2023-05-01T05:16:39.485Z,8.9
2023-05-01T05:18:42.595Z,8.8
2023-05-01T05:20:45.688Z,8.9
2023-05-01T05:22:48.819Z,9
2023-05-01T05:24:51.974Z,8.9
2023-05-01T05:26:55.107Z,9
2023-05-01T05:29:01.453Z,9
2023-05-01T05:31:04.613Z,9
2023-05-01T05:33:07.906Z,9
2023-05-01T05:35:10.892Z,9.2
2023-05-01T05:37:14.015Z,9.2
2023-05-01T05:39:17.167Z,9.3
2023-05-01T05:41:20.311Z,9.4
2023-05-01T05:43:28.099Z,9.4
2023-05-01T05:45:29.811Z,9.4
2023-05-01T05:47:33.047Z,9.4
2023-05-01T05:49:36.089Z,9.5
2023-05-01T05:51:39.242Z,9.6
2023-05-01T05:53:42.340Z,9.4
2023-05-01T05:55:45.506Z,9.5
2023-05-01T05:57:51.977Z,9.7
2023-05-01T05:59:55.367Z,9.7
2023-05-01T06:01:59.762Z,9.7
2023-05-01T06:03:02.930Z,9.6
2023-05-01T06:05:06.049Z,9.6
2023-05-01T06:13:21.750Z,9.4
2023-05-01T06:15:24.884Z,9.6
2023-05-01T06:19:31.162Z,9.7
2023-05-01T06:21:34.294Z,9.8
2023-05-01T06:23:37.433Z,9.8
2023-05-01T06:25:43.772Z,9.8
2023-05-01T06:27:46.884Z,10
2023-05-01T06:29:50.023Z,9.9
2023-05-01T06:35:59.475Z,10
2023-05-01T06:38:02.633Z,10.1
2023-05-01T06:42:12.109Z,10.4
2023-05-01T06:44:15.247Z,10.5
2023-05-01T06:54:34.206Z,10.9
2023-05-01T06:56:37.331Z,10.9
2023-05-01T06:58:40.474Z,11
2023-05-01T07:08:01.639Z,11.3
2023-05-01T07:10:02.661Z,11.4
2023-05-01T07:12:05.796Z,11.3
2023-05-01T07:22:24.805Z,11.6
2023-05-01T07:28:34.265Z,11.8
2023-05-01T07:30:37.432Z,11.7
2023-05-01T07:32:40.583Z,11.8
2023-05-01T07:34:43.753Z,11.8
2023-05-01T07:36:50.035Z,12
2023-05-01T07:38:53.174Z,12
2023-05-01T07:40:56.336Z,12.4
2023-05-01T07:42:59.516Z,12.6
2023-05-01T07:45:02.658Z,12.5
2023-05-01T07:47:05.823Z,12.5
2023-05-01T07:49:08.892Z,12.3
2023-05-01T07:51:15.090Z,12.7
2023-05-01T07:53:18.130Z,12.7
2023-05-01T07:55:21.177Z,12.7
2023-05-01T07:56:24.268Z,12.9
2023-05-01T08:02:33.578Z,13.2
2023-05-01T08:16:57.921Z,15.2
2023-05-01T08:19:04.104Z,15.3
2023-05-01T08:21:07.136Z,15.1
2023-05-01T08:23:10.210Z,15.4
2023-05-01T08:25:13.269Z,15.8
2023-05-01T08:27:16.330Z,16.3
2023-05-01T08:29:19.385Z,16
2023-05-01T08:31:22.598Z,16.1
2023-05-01T08:33:28.582Z,17.2
2023-05-01T08:35:31.601Z,17.5
2023-05-01T08:37:34.676Z,18.2
2023-05-01T08:39:37.721Z,18.6
2023-05-01T08:41:40.740Z,18.7
2023-05-01T08:43:43.799Z,18.9
2023-05-01T08:45:46.842Z,19
2023-05-01T08:47:53.009Z,19.1
2023-05-01T08:49:56.442Z,19.2
2023-05-01T08:51:59.026Z,20
2023-05-01T09:00:40.500Z,20.6
2023-05-01T09:02:43.647Z,20.9
2023-05-01T09:04:46.576Z,21.2
2023-05-01T09:06:49.738Z,21
2023-05-01T09:08:52.605Z,19.7
2023-05-01T09:10:55.599Z,19.3
2023-05-01T09:15:04.727Z,20.6
2023-05-01T09:25:19.670Z,20.9
2023-05-01T09:27:22.668Z,21.3
2023-05-01T09:29:28.753Z,21.3
2023-05-01T09:31:31.737Z,20.8
2023-05-01T09:33:34.656Z,20.8
2023-05-01T09:35:37.631Z,21.2
2023-05-01T09:43:52.548Z,21
2023-05-01T09:45:55.545Z,21.2
2023-05-01T09:47:58.442Z,20.8
2023-05-01T09:49:01.443Z,20
2023-05-01T09:51:04.374Z,19.9
2023-05-01T09:53:07.312Z,20
2023-05-01T09:55:10.245Z,19.7
2023-05-01T09:57:16.315Z,20.6
2023-05-01T09:59:19.219Z,20.5
2023-05-01T10:01:22.208Z,20.5
2023-05-01T10:03:25.259Z,20.2
2023-05-01T10:05:28.015Z,19.8
2023-05-01T10:07:31.160Z,20
2023-05-01T10:09:34.099Z,19.9
2023-05-01T10:26:05.283Z,19.6
2023-05-01T10:30:09.872Z,19
2023-05-01T10:38:22.196Z,18.4
2023-05-01T10:45:37.284Z,18.6
2023-05-01T10:47:40.279Z,18.7
2023-05-01T10:49:43.297Z,18.6
2023-05-01T10:51:46.259Z,18.5
2023-05-01T10:53:52.492Z,18.6
2023-05-01T10:55:55.349Z,18.6
2023-05-01T11:00:01.312Z,18.7
2023-05-01T11:02:04.337Z,18.9
2023-05-01T11:04:07.308Z,19.1
2023-05-01T11:06:10.486Z,19.1
2023-05-01T11:08:16.399Z,19.1
2023-05-01T11:10:19.386Z,19
2023-05-01T11:12:22.379Z,19.1
2023-05-01T11:22:40.458Z,19.2
2023-05-01T11:24:43.465Z,19.2
2023-05-01T11:30:52.415Z,19.3
2023-05-01T11:32:55.413Z,19.3
2023-05-01T11:37:04.477Z,19.6
2023-05-01T11:39:07.452Z,19.4
2023-05-01T11:42:13.543Z,19.8
2023-05-01T11:44:16.451Z,19.8
2023-05-01T11:46:19.497Z,19.8
2023-05-01T11:48:22.408Z,19.6
2023-05-01T11:50:28.519Z,19.6
2023-05-01T11:52:31.478Z,19.6
2023-05-01T11:54:34.482Z,19.4
2023-05-01T11:56:39.017Z,19.7
2023-05-01T11:58:41.944Z,19.3
2023-05-01T12:00:44.917Z,19.3
2023-05-01T12:04:54.149Z,19.4
2023-05-01T12:06:56.990Z,19.4
2023-05-01T12:08:59.940Z,19.5
2023-05-01T12:11:03.163Z,19.7
2023-05-01T12:13:05.906Z,19.7
2023-05-01T12:15:08.886Z,19.9
2023-05-01T12:17:11.997Z,19.8
2023-05-01T12:19:17.977Z,20.7
2023-05-01T12:21:20.954Z,20.7
2023-05-01T12:23:23.923Z,20.7
2023-05-01T12:25:26.887Z,20.6
2023-05-01T12:27:29.838Z,20.4
2023-05-01T12:29:32.816Z,20.4
2023-05-01T12:31:35.838Z,20.1
2023-05-01T12:33:41.887Z,20.4
2023-05-01T12:40:11.091Z,20.4
2023-05-01T12:44:16.999Z,21.1
2023-05-01T12:48:26.017Z,21.5
2023-05-01T12:50:28.957Z,22
2023-05-01T12:52:31.889Z,22
2023-05-01T12:58:40.629Z,21.2
2023-05-01T13:02:49.587Z,21.6
2023-05-01T13:04:52.418Z,21.7
2023-05-01T13:11:01.079Z,21.8
2023-05-01T13:17:12.815Z,21.3
2023-05-01T13:23:21.466Z,21.5
2023-05-01T13:25:24.313Z,21.7
2023-05-01T13:27:27.205Z,21.7
2023-05-01T13:29:33.189Z,22.5
2023-05-01T13:31:36.157Z,22.9
2023-05-01T13:33:38.897Z,23.7
2023-05-01T13:34:41.920Z,23.7
2023-05-01T13:38:47.560Z,22.5
2023-05-01T13:40:50.393Z,21.9
2023-05-01T13:42:56.359Z,22.2
2023-05-01T13:44:59.170Z,21.4
2023-05-01T13:49:04.833Z,21.6
2023-05-01T13:51:07.685Z,21.6
2023-05-01T13:57:19.313Z,19.8
2023-05-01T14:03:27.959Z,19.5
2023-05-01T14:05:30.841Z,19.1
2023-05-01T14:07:33.670Z,19.3
2023-05-01T14:09:36.585Z,19.3
2023-05-01T14:11:42.623Z,19
2023-05-01T14:13:45.568Z,19
2023-05-01T14:15:48.505Z,18.7
2023-05-01T14:17:51.462Z,18.6
2023-05-01T14:28:09.339Z,18.3
2023-05-01T14:31:15.393Z,18.4
2023-05-01T14:33:18.392Z,18.3
2023-05-01T14:35:21.291Z,18.3
2023-05-01T14:37:24.299Z,18.3
2023-05-01T14:39:30.397Z,17.8
2023-05-01T14:41:33.373Z,17.8
2023-05-01T14:43:36.378Z,17.9
2023-05-01T14:45:39.370Z,18.1
2023-05-01T14:47:42.398Z,17.8
2023-05-01T14:49:45.373Z,17.6
2023-05-01T14:51:48.357Z,17.6
2023-05-01T14:58:00.473Z,18.1
2023-05-01T15:00:03.520Z,18.1
2023-05-01T15:04:09.683Z,18.2
2023-05-01T15:06:12.663Z,18.4
2023-05-01T15:08:18.641Z,17.9
2023-05-01T15:27:51.938Z,17.7
2023-05-01T15:29:54.978Z,17.7
2023-05-01T15:32:10.774Z,17.7
2023-05-01T15:36:07.100Z,17.6
2023-05-01T15:40:13.165Z,17.7
2023-05-01T15:44:19.201Z,19.7
2023-05-01T15:46:22.321Z,21.7
2023-05-01T15:50:31.352Z,23.3
2023-05-01T15:52:34.350Z,23.4
2023-05-01T15:54:37.339Z,22
2023-05-01T15:58:43.316Z,22.5
2023-05-01T16:00:47.124Z,23.2
2023-05-01T16:02:49.328Z,22
2023-05-01T16:04:55.901Z,19.5
2023-05-01T16:06:58.844Z,20.3
2023-05-01T16:09:01.823Z,21.7
2023-05-01T16:13:07.740Z,21.1
2023-05-01T16:19:19.717Z,18.7
2023-05-01T16:23:25.614Z,18.6
2023-05-01T16:25:54.832Z,18.3
2023-05-01T16:27:57.823Z,18.2
2023-05-01T16:30:01.170Z,18.2
2023-05-01T16:32:06.913Z,17.9
2023-05-01T16:34:09.869Z,17.5
2023-05-01T16:36:12.833Z,17.3
2023-05-01T16:38:15.801Z,17.3
2023-05-01T16:40:18.800Z,17.6
2023-05-01T16:42:21.768Z,17.6
2023-05-01T16:44:24.797Z,17.8
2023-05-01T16:46:30.924Z,17.8
2023-05-01T16:48:33.901Z,17.8
2023-05-01T16:50:36.899Z,17.9
2023-05-01T16:52:39.910Z,17.9
2023-05-01T16:54:42.910Z,17.9
2023-05-01T16:56:46.065Z,18
2023-05-01T16:58:48.932Z,17.8
2023-05-01T17:00:55.053Z,17.7
2023-05-01T17:02:58.147Z,17.7
2023-05-01T17:05:01.086Z,17.6
2023-05-01T17:07:04.127Z,17.7
2023-05-01T17:09:07.126Z,17.6
2023-05-01T17:11:10.144Z,17.2
2023-05-01T17:13:13.186Z,17.1
2023-05-01T17:15:19.303Z,16.9
2023-05-01T17:17:22.439Z,16.9
2023-05-01T17:19:25.373Z,16.7
2023-05-01T17:20:28.470Z,16.8
2023-05-01T17:22:31.498Z,16.7
2023-05-01T17:24:34.519Z,16.5
2023-05-01T17:26:37.560Z,16.4
2023-05-01T17:28:43.706Z,16.1
2023-05-01T17:32:50.018Z,15.8
2023-05-01T17:34:52.827Z,15.7
2023-05-01T17:36:57.714Z,15.7
2023-05-01T17:41:01.965Z,15.5
2023-05-01T17:43:08.094Z,15.4
2023-05-01T17:45:11.190Z,15.3
2023-05-01T17:47:14.228Z,15.4
2023-05-01T17:51:21.905Z,15.3
2023-05-01T18:07:49.344Z,15
2023-05-01T18:11:58.551Z,15
2023-05-01T18:14:01.633Z,14.9
2023-05-01T18:16:04.650Z,15.1
2023-05-01T18:17:07.881Z,15.1
2023-05-01T18:23:16.921Z,15
2023-05-01T18:25:23.076Z,14.9
2023-05-01T18:27:26.130Z,15
2023-05-01T18:29:29.196Z,15
2023-05-01T18:31:32.282Z,14.8
2023-05-01T18:33:35.363Z,14.7
2023-05-01T18:35:38.357Z,14.7
2023-05-01T18:43:56.371Z,14.7
2023-05-01T18:45:56.794Z,14.6
2023-05-01T18:47:59.963Z,14.6
2023-05-01T18:50:02.912Z,14.5
2023-05-01T18:52:05.981Z,14.5
2023-05-01T18:54:12.127Z,14.5
2023-05-01T18:56:15.194Z,14.3
2023-05-01T19:02:24.458Z,14.4
2023-05-01T19:08:36.683Z,14.1
2023-05-01T19:12:42.809Z,14.1
2023-05-01T19:13:45.902Z,13.9
2023-05-01T19:15:48.968Z,13.9
2023-05-01T19:17:52.067Z,14
2023-05-01T19:28:10.446Z,13.8
2023-05-01T19:30:13.521Z,13.7
2023-05-01T19:32:16.608Z,13.7
2023-05-01T19:34:19.693Z,13.6
2023-05-01T19:36:25.825Z,13.5
2023-05-01T19:40:31.916Z,13.5
2023-05-01T19:42:34.991Z,13.4
2023-05-01T19:44:38.028Z,13.3
2023-05-01T19:48:44.153Z,13.4
2023-05-01T20:05:14.892Z,12.9
2023-05-01T20:11:44.365Z,12.8
2023-05-01T20:13:47.412Z,12.8
2023-05-01T20:15:50.494Z,12.7
2023-05-01T20:17:56.753Z,12.6
2023-05-01T20:22:02.801Z,12.6
2023-05-01T20:24:05.843Z,12.6
2023-05-01T20:26:08.919Z,12.5
2023-05-01T20:28:11.973Z,12.5
2023-05-01T20:30:15.040Z,12.4
2023-05-01T20:32:21.206Z,12.3
2023-05-01T20:34:24.261Z,12.3
2023-05-01T20:36:27.344Z,12.2
2023-05-01T20:38:30.400Z,12.2
2023-05-01T20:40:33.468Z,12.2
2023-05-01T20:42:36.504Z,12.2
2023-05-01T20:44:39.586Z,12.2
2023-05-01T20:46:45.961Z,12.1
2023-05-01T20:52:55.054Z,12.1
2023-05-01T20:54:58.110Z,12.1
2023-05-01T20:57:01.184Z,12.1
2023-05-01T20:59:04.345Z,12.1
2023-05-01T21:03:13.728Z,12.2
2023-05-01T21:06:20.075Z,12.2
2023-05-01T21:10:26.275Z,12.1
2023-05-01T21:12:29.424Z,12.2
2023-05-01T21:16:39.092Z,12.1
2023-05-01T21:18:42.164Z,12.2
2023-05-01T21:20:45.320Z,12.2
2023-05-01T21:22:48.495Z,12
2023-05-01T21:24:51.693Z,12.1
2023-05-01T21:26:54.867Z,12.1
2023-05-01T21:29:01.044Z,12.2
2023-05-01T21:35:11.444Z,12.2
2023-05-01T21:39:16.748Z,12.2
2023-05-01T21:41:19.939Z,12.1
2023-05-01T21:47:32.683Z,11.9
2023-05-01T21:53:42.142Z,11.6
2023-05-01T21:55:45.286Z,11.6
2023-05-01T21:57:51.674Z,11.7
2023-05-01T21:59:54.841Z,11.7
2023-05-01T22:05:04.354Z,11.9
2023-05-01T22:09:10.701Z,11.7
2023-05-01T22:11:17.062Z,11.5
2023-05-01T22:13:20.223Z,11.5
2023-05-01T22:15:23.395Z,11.5
2023-05-01T22:17:26.585Z,11.4
2023-05-01T22:31:51.984Z,11.1
2023-05-01T22:33:55.062Z,11.1
2023-05-01T22:38:01.394Z,11
2023-05-01T22:40:07.745Z,11
2023-05-01T22:42:10.914Z,10.9
2023-05-01T22:44:14.041Z,10.8
2023-05-01T22:46:17.285Z,10.8
2023-05-01T22:52:26.678Z,10.8
2023-05-01T22:54:33.052Z,10.8
2023-05-01T22:56:36.197Z,10.7
2023-05-01T22:58:39.349Z,10.8
2023-05-01T23:05:51.999Z,10.7
2023-05-01T23:07:58.352Z,10.7
2023-05-01T23:10:01.789Z,10.8
2023-05-01T23:12:04.652Z,10.8
2023-05-01T23:14:07.791Z,10.8
2023-05-01T23:16:11.017Z,10.9
2023-05-01T23:18:14.096Z,10.9
2023-05-01T23:20:17.251Z,11
2023-05-01T23:22:23.640Z,11
2023-05-01T23:28:33.092Z,11
2023-05-01T23:32:39.410Z,11.1
2023-05-01T23:34:42.568Z,11.1
2023-05-01T23:36:48.903Z,11.1
2023-05-01T23:38:52.483Z,11
2023-05-01T23:40:55.644Z,11.1
2023-05-01T23:45:01.962Z,11.2
2023-05-01T23:47:06.808Z,11.1
2023-05-01T23:49:09.755Z,11.2
2023-05-01T23:51:16.124Z,11.2
2023-05-01T23:53:19.304Z,11.2
2023-05-01T23:55:22.438Z,11.2
2023-05-01T23:57:52.180Z,11.2
2023-05-01T23:59:55.351Z,11.1
